sensor_id;sensor_type;location;lat;lon;timestamp;pressure;altitude;pressure_sealevel;temperature
10869;BMP180;62667;48.698;8.762;2023-08-08T00:00:02;96184.00;;;12.60
10869;BMP180;62667;48.698;8.762;2023-08-08T00:02:30;96188.00;;;12.60
10869;BMP180;62667;48.698;8.762;2023-08-08T00:04:58;96184.00;;;12.50
10869;BMP180;62667;48.698;8.762;2023-08-08T00:07:25;96184.00;;;12.50
10869;BMP180;62667;48.698;8.762;2023-08-08T00:09:57;96188.00;;;12.50
10869;BMP180;62667;48.698;8.762;2023-08-08T00:12:25;96181.00;;;12.50
10869;BMP180;62667;48.698;8.762;2023-08-08T00:14:52;96187.00;;;12.50
10869;BMP180;62667;48.698;8.762;2023-08-08T00:17:20;96193.00;;;12.50
10869;BMP180;62667;48.698;8.762;2023-08-08T00:19:47;96172.00;;;12.50
10869;BMP180;62667;48.698;8.762;2023-08-08T00:22:14;96181.00;;;12.50
10869;BMP180;62667;48.698;8.762;2023-08-08T00:24:42;96189.00;;;12.60
10869;BMP180;62667;48.698;8.762;2023-08-08T00:27:11;96181.00;;;12.60
10869;BMP180;62667;48.698;8.762;2023-08-08T00:29:38;96188.00;;;12.60
10869;BMP180;62667;48.698;8.762;2023-08-08T00:32:06;96185.00;;;12.60
10869;BMP180;62667;48.698;8.762;2023-08-08T00:34:33;96184.00;;;12.50
10869;BMP180;62667;48.698;8.762;2023-08-08T00:37:01;96178.00;;;12.50
10869;BMP180;62667;48.698;8.762;2023-08-08T00:39:28;96179.00;;;12.50
10869;BMP180;62667;48.698;8.762;2023-08-08T00:41:55;96183.00;;;12.40
10869;BMP180;62667;48.698;8.762;2023-08-08T00:44:24;96177.00;;;12.40
10869;BMP180;62667;48.698;8.762;2023-08-08T00:46:52;96168.00;;;12.30
10869;BMP180;62667;48.698;8.762;2023-08-08T00:49:19;96167.00;;;12.20
10869;BMP180;62667;48.698;8.762;2023-08-08T00:51:47;96171.00;;;12.20
10869;BMP180;62667;48.698;8.762;2023-08-08T00:54:15;96164.00;;;12.10
10869;BMP180;62667;48.698;8.762;2023-08-08T00:56:42;96164.00;;;12.10
10869;BMP180;62667;48.698;8.762;2023-08-08T00:59:12;96163.00;;;12.20
10869;BMP180;62667;48.698;8.762;2023-08-08T01:01:42;96165.00;;;12.20
10869;BMP180;62667;48.698;8.762;2023-08-08T01:04:09;96162.00;;;12.10
10869;BMP180;62667;48.698;8.762;2023-08-08T01:06:41;96162.00;;;12.10
10869;BMP180;62667;48.698;8.762;2023-08-08T01:09:16;96165.00;;;12.10
10869;BMP180;62667;48.698;8.762;2023-08-08T01:11:46;96156.00;;;12.10
10869;BMP180;62667;48.698;8.762;2023-08-08T01:14:17;96157.00;;;12.10
10869;BMP180;62667;48.698;8.762;2023-08-08T01:16:47;96155.00;;;12.10
10869;BMP180;62667;48.698;8.762;2023-08-08T01:19:23;96160.00;;;12.10
10869;BMP180;62667;48.698;8.762;2023-08-08T01:21:53;96152.00;;;12.10
10869;BMP180;62667;48.698;8.762;2023-08-08T01:24:24;96156.00;;;12.10
10869;BMP180;62667;48.698;8.762;2023-08-08T01:26:55;96150.00;;;12.10
10869;BMP180;62667;48.698;8.762;2023-08-08T01:29:22;96142.00;;;12.10
10869;BMP180;62667;48.698;8.762;2023-08-08T01:31:50;96143.00;;;12.10
10869;BMP180;62667;48.698;8.762;2023-08-08T01:34:17;96149.00;;;12.10
10869;BMP180;62667;48.698;8.762;2023-08-08T01:36:48;96135.00;;;12.10
10869;BMP180;62667;48.698;8.762;2023-08-08T01:39:20;96150.00;;;12.00
10869;BMP180;62667;48.698;8.762;2023-08-08T01:41:51;96146.00;;;12.00
10869;BMP180;62667;48.698;8.762;2023-08-08T01:44:20;96148.00;;;11.90
10869;BMP180;62667;48.698;8.762;2023-08-08T01:46:49;96148.00;;;11.90
10869;BMP180;62667;48.698;8.762;2023-08-08T01:49:16;96139.00;;;11.90
10869;BMP180;62667;48.698;8.762;2023-08-08T01:51:44;96145.00;;;11.90
10869;BMP180;62667;48.698;8.762;2023-08-08T01:54:11;96142.00;;;11.90
10869;BMP180;62667;48.698;8.762;2023-08-08T01:56:39;96152.00;;;12.10
10869;BMP180;62667;48.698;8.762;2023-08-08T01:59:07;96146.00;;;12.00
10869;BMP180;62667;48.698;8.762;2023-08-08T02:01:36;96149.00;;;12.00
10869;BMP180;62667;48.698;8.762;2023-08-08T02:04:04;96134.00;;;12.10
10869;BMP180;62667;48.698;8.762;2023-08-08T02:06:31;96141.00;;;12.10
10869;BMP180;62667;48.698;8.762;2023-08-08T02:08:59;96141.00;;;12.10
10869;BMP180;62667;48.698;8.762;2023-08-08T02:11:26;96138.00;;;12.00
10869;BMP180;62667;48.698;8.762;2023-08-08T02:13:54;96141.00;;;12.10
10869;BMP180;62667;48.698;8.762;2023-08-08T02:16:22;96142.00;;;12.10
10869;BMP180;62667;48.698;8.762;2023-08-08T02:18:50;96138.00;;;12.20
10869;BMP180;62667;48.698;8.762;2023-08-08T02:21:17;96130.00;;;12.00
10869;BMP180;62667;48.698;8.762;2023-08-08T02:23:45;96130.00;;;12.00
10869;BMP180;62667;48.698;8.762;2023-08-08T02:26:12;96126.00;;;12.00
10869;BMP180;62667;48.698;8.762;2023-08-08T02:28:39;96132.00;;;11.90
10869;BMP180;62667;48.698;8.762;2023-08-08T02:31:07;96130.00;;;11.90
10869;BMP180;62667;48.698;8.762;2023-08-08T02:33:36;96125.00;;;11.90
10869;BMP180;62667;48.698;8.762;2023-08-08T02:36:03;96125.00;;;12.00
10869;BMP180;62667;48.698;8.762;2023-08-08T02:38:31;96126.00;;;12.00
10869;BMP180;62667;48.698;8.762;2023-08-08T02:40:58;96120.00;;;12.10
10869;BMP180;62667;48.698;8.762;2023-08-08T02:43:26;96124.00;;;12.10
10869;BMP180;62667;48.698;8.762;2023-08-08T02:45:53;96129.00;;;11.90
10869;BMP180;62667;48.698;8.762;2023-08-08T02:48:20;96124.00;;;12.00
10869;BMP180;62667;48.698;8.762;2023-08-08T02:50:49;96131.00;;;12.10
10869;BMP180;62667;48.698;8.762;2023-08-08T02:53:16;96126.00;;;12.10
10869;BMP180;62667;48.698;8.762;2023-08-08T02:55:44;96114.00;;;12.10
10869;BMP180;62667;48.698;8.762;2023-08-08T02:58:11;96126.00;;;12.10
10869;BMP180;62667;48.698;8.762;2023-08-08T03:00:39;96114.00;;;12.10
10869;BMP180;62667;48.698;8.762;2023-08-08T03:03:06;96127.00;;;12.20
10869;BMP180;62667;48.698;8.762;2023-08-08T03:05:34;96129.00;;;12.10
10869;BMP180;62667;48.698;8.762;2023-08-08T03:08:04;96121.00;;;12.10
10869;BMP180;62667;48.698;8.762;2023-08-08T03:10:31;96130.00;;;12.20
10869;BMP180;62667;48.698;8.762;2023-08-08T03:12:59;96125.00;;;12.20
10869;BMP180;62667;48.698;8.762;2023-08-08T03:15:26;96127.00;;;12.20
10869;BMP180;62667;48.698;8.762;2023-08-08T03:17:53;96120.00;;;12.20
10869;BMP180;62667;48.698;8.762;2023-08-08T03:20:21;96122.00;;;12.30
10869;BMP180;62667;48.698;8.762;2023-08-08T03:22:49;96120.00;;;12.10
10869;BMP180;62667;48.698;8.762;2023-08-08T03:25:18;96118.00;;;12.20
10869;BMP180;62667;48.698;8.762;2023-08-08T03:27:45;96124.00;;;12.20
10869;BMP180;62667;48.698;8.762;2023-08-08T03:30:13;96119.00;;;12.00
10869;BMP180;62667;48.698;8.762;2023-08-08T03:32:41;96120.00;;;12.00
10869;BMP180;62667;48.698;8.762;2023-08-08T03:35:08;96125.00;;;12.00
10869;BMP180;62667;48.698;8.762;2023-08-08T03:37:36;96118.00;;;12.10
10869;BMP180;62667;48.698;8.762;2023-08-08T03:40:04;96123.00;;;12.10
10869;BMP180;62667;48.698;8.762;2023-08-08T03:42:35;96118.00;;;12.10
10869;BMP180;62667;48.698;8.762;2023-08-08T03:45:02;96114.00;;;12.00
10869;BMP180;62667;48.698;8.762;2023-08-08T03:47:30;96109.00;;;12.00
10869;BMP180;62667;48.698;8.762;2023-08-08T03:49:57;96115.00;;;11.90
10869;BMP180;62667;48.698;8.762;2023-08-08T03:52:25;96116.00;;;11.90
10869;BMP180;62667;48.698;8.762;2023-08-08T03:54:52;96110.00;;;11.90
10869;BMP180;62667;48.698;8.762;2023-08-08T03:57:20;96111.00;;;11.80
10869;BMP180;62667;48.698;8.762;2023-08-08T03:59:48;96108.00;;;11.90
10869;BMP180;62667;48.698;8.762;2023-08-08T04:02:16;96110.00;;;11.90
10869;BMP180;62667;48.698;8.762;2023-08-08T04:04:43;96112.00;;;11.90
10869;BMP180;62667;48.698;8.762;2023-08-08T04:07:11;96114.00;;;11.90
10869;BMP180;62667;48.698;8.762;2023-08-08T04:09:37;96117.00;;;11.90
10869;BMP180;62667;48.698;8.762;2023-08-08T04:12:05;96121.00;;;11.90
10869;BMP180;62667;48.698;8.762;2023-08-08T04:14:32;96120.00;;;11.80
10869;BMP180;62667;48.698;8.762;2023-08-08T04:17:01;96125.00;;;11.80
10869;BMP180;62667;48.698;8.762;2023-08-08T04:19:29;96125.00;;;11.80
10869;BMP180;62667;48.698;8.762;2023-08-08T04:21:56;96125.00;;;11.80
10869;BMP180;62667;48.698;8.762;2023-08-08T04:24:24;96125.00;;;11.80
10869;BMP180;62667;48.698;8.762;2023-08-08T04:26:51;96125.00;;;11.80
10869;BMP180;62667;48.698;8.762;2023-08-08T04:29:19;96126.00;;;11.80
10869;BMP180;62667;48.698;8.762;2023-08-08T04:31:46;96105.00;;;11.80
10869;BMP180;62667;48.698;8.762;2023-08-08T04:34:15;96121.00;;;11.80
10869;BMP180;62667;48.698;8.762;2023-08-08T04:36:43;96126.00;;;11.80
10869;BMP180;62667;48.698;8.762;2023-08-08T04:39:10;96123.00;;;11.80
10869;BMP180;62667;48.698;8.762;2023-08-08T04:41:38;96115.00;;;11.80
10869;BMP180;62667;48.698;8.762;2023-08-08T04:44:05;96124.00;;;11.80
10869;BMP180;62667;48.698;8.762;2023-08-08T04:46:33;96114.00;;;11.90
10869;BMP180;62667;48.698;8.762;2023-08-08T04:49:00;96123.00;;;11.90
10869;BMP180;62667;48.698;8.762;2023-08-08T04:51:29;96119.00;;;11.80
10869;BMP180;62667;48.698;8.762;2023-08-08T04:53:56;96125.00;;;11.80
10869;BMP180;62667;48.698;8.762;2023-08-08T04:56:23;96133.00;;;11.80
10869;BMP180;62667;48.698;8.762;2023-08-08T04:58:51;96139.00;;;11.80
10869;BMP180;62667;48.698;8.762;2023-08-08T05:01:18;96131.00;;;11.90
10869;BMP180;62667;48.698;8.762;2023-08-08T05:03:47;96127.00;;;11.90
10869;BMP180;62667;48.698;8.762;2023-08-08T05:06:14;96134.00;;;12.00
10869;BMP180;62667;48.698;8.762;2023-08-08T05:08:43;96132.00;;;12.10
10869;BMP180;62667;48.698;8.762;2023-08-08T05:11:10;96135.00;;;12.30
10869;BMP180;62667;48.698;8.762;2023-08-08T05:13:38;96138.00;;;12.20
10869;BMP180;62667;48.698;8.762;2023-08-08T05:16:05;96135.00;;;12.20
10869;BMP180;62667;48.698;8.762;2023-08-08T05:18:33;96122.00;;;12.20
10869;BMP180;62667;48.698;8.762;2023-08-08T05:21:00;96129.00;;;12.30
10869;BMP180;62667;48.698;8.762;2023-08-08T05:23:28;96124.00;;;12.40
10869;BMP180;62667;48.698;8.762;2023-08-08T05:25:56;96122.00;;;12.50
10869;BMP180;62667;48.698;8.762;2023-08-08T05:28:24;96128.00;;;12.50
10869;BMP180;62667;48.698;8.762;2023-08-08T05:30:51;96127.00;;;12.40
10869;BMP180;62667;48.698;8.762;2023-08-08T05:33:19;96129.00;;;12.50
10869;BMP180;62667;48.698;8.762;2023-08-08T05:35:46;96118.00;;;12.60
10869;BMP180;62667;48.698;8.762;2023-08-08T05:38:13;96124.00;;;12.70
10869;BMP180;62667;48.698;8.762;2023-08-08T05:40:42;96130.00;;;12.70
10869;BMP180;62667;48.698;8.762;2023-08-08T05:43:10;96129.00;;;12.70
10869;BMP180;62667;48.698;8.762;2023-08-08T05:45:43;96133.00;;;12.80
10869;BMP180;62667;48.698;8.762;2023-08-08T05:48:10;96122.00;;;12.70
10869;BMP180;62667;48.698;8.762;2023-08-08T05:50:38;96120.00;;;12.60
10869;BMP180;62667;48.698;8.762;2023-08-08T05:53:06;96124.00;;;12.70
10869;BMP180;62667;48.698;8.762;2023-08-08T05:55:34;96121.00;;;12.80
10869;BMP180;62667;48.698;8.762;2023-08-08T05:58:01;96126.00;;;12.90
10869;BMP180;62667;48.698;8.762;2023-08-08T06:00:30;96125.00;;;13.00
10869;BMP180;62667;48.698;8.762;2023-08-08T06:02:58;96123.00;;;13.00
10869;BMP180;62667;48.698;8.762;2023-08-08T06:05:25;96123.00;;;13.30
10869;BMP180;62667;48.698;8.762;2023-08-08T06:07:53;96120.00;;;13.40
10869;BMP180;62667;48.698;8.762;2023-08-08T06:10:21;96124.00;;;13.50
10869;BMP180;62667;48.698;8.762;2023-08-08T06:12:49;96118.00;;;13.50
10869;BMP180;62667;48.698;8.762;2023-08-08T06:15:16;96126.00;;;13.70
10869;BMP180;62667;48.698;8.762;2023-08-08T06:17:45;96125.00;;;13.90
10869;BMP180;62667;48.698;8.762;2023-08-08T06:20:12;96133.00;;;14.00
10869;BMP180;62667;48.698;8.762;2023-08-08T06:22:41;96129.00;;;14.00
10869;BMP180;62667;48.698;8.762;2023-08-08T06:25:09;96126.00;;;14.20
10869;BMP180;62667;48.698;8.762;2023-08-08T06:27:37;96122.00;;;14.30
10869;BMP180;62667;48.698;8.762;2023-08-08T06:30:05;96126.00;;;14.40
10869;BMP180;62667;48.698;8.762;2023-08-08T06:32:34;96112.00;;;14.40
10869;BMP180;62667;48.698;8.762;2023-08-08T06:35:03;96118.00;;;14.30
10869;BMP180;62667;48.698;8.762;2023-08-08T06:37:32;96120.00;;;14.30
10869;BMP180;62667;48.698;8.762;2023-08-08T06:40:00;96117.00;;;14.50
10869;BMP180;62667;48.698;8.762;2023-08-08T06:42:27;96120.00;;;14.60
10869;BMP180;62667;48.698;8.762;2023-08-08T06:44:54;96117.00;;;14.80
10869;BMP180;62667;48.698;8.762;2023-08-08T06:47:22;96118.00;;;14.50
10869;BMP180;62667;48.698;8.762;2023-08-08T06:49:50;96124.00;;;14.60
10869;BMP180;62667;48.698;8.762;2023-08-08T06:52:18;96116.00;;;14.50
10869;BMP180;62667;48.698;8.762;2023-08-08T06:54:46;96119.00;;;14.70
10869;BMP180;62667;48.698;8.762;2023-08-08T06:57:13;96116.00;;;14.90
10869;BMP180;62667;48.698;8.762;2023-08-08T06:59:40;96117.00;;;14.90
10869;BMP180;62667;48.698;8.762;2023-08-08T07:02:08;96111.00;;;14.90
10869;BMP180;62667;48.698;8.762;2023-08-08T07:04:35;96108.00;;;14.80
10869;BMP180;62667;48.698;8.762;2023-08-08T07:07:03;96114.00;;;14.90
10869;BMP180;62667;48.698;8.762;2023-08-08T07:09:32;96109.00;;;14.70
10869;BMP180;62667;48.698;8.762;2023-08-08T07:12:00;96111.00;;;14.90
10869;BMP180;62667;48.698;8.762;2023-08-08T07:14:28;96111.00;;;15.30
10869;BMP180;62667;48.698;8.762;2023-08-08T07:16:55;96106.00;;;15.20
10869;BMP180;62667;48.698;8.762;2023-08-08T07:19:23;96110.00;;;15.30
10869;BMP180;62667;48.698;8.762;2023-08-08T07:21:50;96112.00;;;15.70
10869;BMP180;62667;48.698;8.762;2023-08-08T07:24:17;96110.00;;;15.50
10869;BMP180;62667;48.698;8.762;2023-08-08T07:26:47;96109.00;;;15.60
10869;BMP180;62667;48.698;8.762;2023-08-08T07:29:15;96113.00;;;15.80
10869;BMP180;62667;48.698;8.762;2023-08-08T07:31:43;96112.00;;;15.50
10869;BMP180;62667;48.698;8.762;2023-08-08T07:34:11;96111.00;;;15.70
10869;BMP180;62667;48.698;8.762;2023-08-08T07:36:38;96109.00;;;15.80
10869;BMP180;62667;48.698;8.762;2023-08-08T07:39:06;96109.00;;;15.90
10869;BMP180;62667;48.698;8.762;2023-08-08T07:41:33;96112.00;;;16.00
10869;BMP180;62667;48.698;8.762;2023-08-08T07:44:02;96115.00;;;15.90
10869;BMP180;62667;48.698;8.762;2023-08-08T07:46:30;96100.00;;;15.70
10869;BMP180;62667;48.698;8.762;2023-08-08T07:48:57;96110.00;;;16.10
10869;BMP180;62667;48.698;8.762;2023-08-08T07:51:25;96101.00;;;16.10
10869;BMP180;62667;48.698;8.762;2023-08-08T07:53:53;96103.00;;;16.10
10869;BMP180;62667;48.698;8.762;2023-08-08T07:56:20;96108.00;;;16.10
10869;BMP180;62667;48.698;8.762;2023-08-08T07:58:47;96110.00;;;16.20
10869;BMP180;62667;48.698;8.762;2023-08-08T08:01:16;96104.00;;;16.20
10869;BMP180;62667;48.698;8.762;2023-08-08T08:03:44;96097.00;;;16.40
10869;BMP180;62667;48.698;8.762;2023-08-08T08:06:12;96094.00;;;16.60
10869;BMP180;62667;48.698;8.762;2023-08-08T08:08:39;96093.00;;;16.80
10869;BMP180;62667;48.698;8.762;2023-08-08T08:11:07;96099.00;;;16.60
10869;BMP180;62667;48.698;8.762;2023-08-08T08:13:34;96100.00;;;16.60
10869;BMP180;62667;48.698;8.762;2023-08-08T08:16:02;96109.00;;;16.70
10869;BMP180;62667;48.698;8.762;2023-08-08T08:18:31;96112.00;;;16.50
10869;BMP180;62667;48.698;8.762;2023-08-08T08:21:00;96105.00;;;16.40
10869;BMP180;62667;48.698;8.762;2023-08-08T08:23:27;96107.00;;;16.40
10869;BMP180;62667;48.698;8.762;2023-08-08T08:25:54;96111.00;;;16.50
10869;BMP180;62667;48.698;8.762;2023-08-08T08:28:22;96111.00;;;16.40
10869;BMP180;62667;48.698;8.762;2023-08-08T08:30:50;96131.00;;;16.50
10869;BMP180;62667;48.698;8.762;2023-08-08T08:33:17;96118.00;;;16.50
10869;BMP180;62667;48.698;8.762;2023-08-08T08:35:46;96107.00;;;16.60
10869;BMP180;62667;48.698;8.762;2023-08-08T08:38:13;96108.00;;;16.90
10869;BMP180;62667;48.698;8.762;2023-08-08T08:40:42;96092.00;;;16.70
10869;BMP180;62667;48.698;8.762;2023-08-08T08:43:12;96090.00;;;17.00
10869;BMP180;62667;48.698;8.762;2023-08-08T08:45:42;96090.00;;;17.30
10869;BMP180;62667;48.698;8.762;2023-08-08T08:48:11;96085.00;;;17.10
10869;BMP180;62667;48.698;8.762;2023-08-08T08:50:39;96085.00;;;17.40
10869;BMP180;62667;48.698;8.762;2023-08-08T08:53:09;96087.00;;;17.90
10869;BMP180;62667;48.698;8.762;2023-08-08T08:55:37;96087.00;;;17.70
10869;BMP180;62667;48.698;8.762;2023-08-08T08:58:04;96102.00;;;17.50
10869;BMP180;62667;48.698;8.762;2023-08-08T09:00:33;96097.00;;;17.30
10869;BMP180;62667;48.698;8.762;2023-08-08T09:03:02;96086.00;;;17.30
10869;BMP180;62667;48.698;8.762;2023-08-08T09:05:31;96078.00;;;17.20
10869;BMP180;62667;48.698;8.762;2023-08-08T09:07:58;96080.00;;;17.60
10869;BMP180;62667;48.698;8.762;2023-08-08T09:10:28;96056.00;;;17.90
10869;BMP180;62667;48.698;8.762;2023-08-08T09:12:57;96095.00;;;17.90
10869;BMP180;62667;48.698;8.762;2023-08-08T09:15:25;96085.00;;;17.60
10869;BMP180;62667;48.698;8.762;2023-08-08T09:17:52;96086.00;;;17.70
10869;BMP180;62667;48.698;8.762;2023-08-08T09:20:20;96085.00;;;17.70
10869;BMP180;62667;48.698;8.762;2023-08-08T09:22:47;96077.00;;;17.70
10869;BMP180;62667;48.698;8.762;2023-08-08T09:25:15;96082.00;;;18.10
10869;BMP180;62667;48.698;8.762;2023-08-08T09:27:44;96093.00;;;18.10
10869;BMP180;62667;48.698;8.762;2023-08-08T09:30:12;96078.00;;;18.20
10869;BMP180;62667;48.698;8.762;2023-08-08T09:32:39;96071.00;;;18.10
10869;BMP180;62667;48.698;8.762;2023-08-08T09:35:07;96063.00;;;18.10
10869;BMP180;62667;48.698;8.762;2023-08-08T09:37:36;96081.00;;;18.60
10869;BMP180;62667;48.698;8.762;2023-08-08T09:40:05;96059.00;;;18.70
10869;BMP180;62667;48.698;8.762;2023-08-08T09:42:37;96067.00;;;18.50
10869;BMP180;62667;48.698;8.762;2023-08-08T09:45:08;96088.00;;;18.50
10869;BMP180;62667;48.698;8.762;2023-08-08T09:47:35;96061.00;;;18.70
10869;BMP180;62667;48.698;8.762;2023-08-08T09:50:05;96063.00;;;18.50
10869;BMP180;62667;48.698;8.762;2023-08-08T09:52:34;96081.00;;;18.00
10869;BMP180;62667;48.698;8.762;2023-08-08T09:55:02;96067.00;;;18.60
10869;BMP180;62667;48.698;8.762;2023-08-08T09:57:30;96075.00;;;18.50
10869;BMP180;62667;48.698;8.762;2023-08-08T09:59:59;96068.00;;;18.40
10869;BMP180;62667;48.698;8.762;2023-08-08T10:02:28;96067.00;;;18.50
10869;BMP180;62667;48.698;8.762;2023-08-08T10:04:57;96065.00;;;18.60
10869;BMP180;62667;48.698;8.762;2023-08-08T10:07:25;96064.00;;;18.30
10869;BMP180;62667;48.698;8.762;2023-08-08T10:09:53;96073.00;;;18.50
10869;BMP180;62667;48.698;8.762;2023-08-08T10:12:21;96064.00;;;18.40
10869;BMP180;62667;48.698;8.762;2023-08-08T10:14:50;96049.00;;;18.40
10869;BMP180;62667;48.698;8.762;2023-08-08T10:17:19;96053.00;;;18.50
10869;BMP180;62667;48.698;8.762;2023-08-08T10:19:56;96063.00;;;18.60
10869;BMP180;62667;48.698;8.762;2023-08-08T10:22:25;96059.00;;;18.60
10869;BMP180;62667;48.698;8.762;2023-08-08T10:24:55;96073.00;;;18.40
10869;BMP180;62667;48.698;8.762;2023-08-08T10:27:31;96073.00;;;18.30
10869;BMP180;62667;48.698;8.762;2023-08-08T10:30:03;96062.00;;;18.90
10869;BMP180;62667;48.698;8.762;2023-08-08T10:32:39;96054.00;;;18.90
10869;BMP180;62667;48.698;8.762;2023-08-08T10:35:08;96063.00;;;18.90
10869;BMP180;62667;48.698;8.762;2023-08-08T10:37:37;96057.00;;;18.90
10869;BMP180;62667;48.698;8.762;2023-08-08T10:40:05;96054.00;;;18.90
10869;BMP180;62667;48.698;8.762;2023-08-08T10:42:40;96054.00;;;19.10
10869;BMP180;62667;48.698;8.762;2023-08-08T10:45:11;96058.00;;;19.20
10869;BMP180;62667;48.698;8.762;2023-08-08T10:47:39;96078.00;;;18.80
10869;BMP180;62667;48.698;8.762;2023-08-08T10:50:10;96083.00;;;19.10
10869;BMP180;62667;48.698;8.762;2023-08-08T10:52:52;96068.00;;;18.40
10869;BMP180;62667;48.698;8.762;2023-08-08T10:55:20;96053.00;;;18.60
10869;BMP180;62667;48.698;8.762;2023-08-08T10:57:59;96043.00;;;18.90
10869;BMP180;62667;48.698;8.762;2023-08-08T11:00:29;96066.00;;;19.40
10869;BMP180;62667;48.698;8.762;2023-08-08T11:02:58;96081.00;;;18.90
10869;BMP180;62667;48.698;8.762;2023-08-08T11:05:28;96049.00;;;18.80
10869;BMP180;62667;48.698;8.762;2023-08-08T11:07:56;96055.00;;;19.20
10869;BMP180;62667;48.698;8.762;2023-08-08T11:10:24;96063.00;;;19.70
10869;BMP180;62667;48.698;8.762;2023-08-08T11:12:58;96051.00;;;19.10
10869;BMP180;62667;48.698;8.762;2023-08-08T11:15:26;96049.00;;;19.40
10869;BMP180;62667;48.698;8.762;2023-08-08T11:17:54;96041.00;;;19.30
10869;BMP180;62667;48.698;8.762;2023-08-08T11:20:22;96034.00;;;19.50
10869;BMP180;62667;48.698;8.762;2023-08-08T11:22:54;96033.00;;;19.70
10869;BMP180;62667;48.698;8.762;2023-08-08T11:25:22;96029.00;;;20.00
10869;BMP180;62667;48.698;8.762;2023-08-08T11:27:53;96031.00;;;19.70
10869;BMP180;62667;48.698;8.762;2023-08-08T11:30:21;96049.00;;;19.70
10869;BMP180;62667;48.698;8.762;2023-08-08T11:32:50;96025.00;;;20.00
10869;BMP180;62667;48.698;8.762;2023-08-08T11:35:20;96073.00;;;20.00
10869;BMP180;62667;48.698;8.762;2023-08-08T11:37:48;96055.00;;;19.90
10869;BMP180;62667;48.698;8.762;2023-08-08T11:40:18;96031.00;;;20.40
10869;BMP180;62667;48.698;8.762;2023-08-08T11:42:47;96037.00;;;21.00
10869;BMP180;62667;48.698;8.762;2023-08-08T11:45:18;96041.00;;;21.00
10869;BMP180;62667;48.698;8.762;2023-08-08T11:47:49;96029.00;;;21.40
10869;BMP180;62667;48.698;8.762;2023-08-08T11:50:19;96038.00;;;20.90
10869;BMP180;62667;48.698;8.762;2023-08-08T11:52:50;96051.00;;;20.80
10869;BMP180;62667;48.698;8.762;2023-08-08T11:55:20;96067.00;;;20.30
10869;BMP180;62667;48.698;8.762;2023-08-08T11:57:49;96063.00;;;19.90
10869;BMP180;62667;48.698;8.762;2023-08-08T12:00:17;96034.00;;;20.20
10869;BMP180;62667;48.698;8.762;2023-08-08T12:02:45;96052.00;;;20.20
10869;BMP180;62667;48.698;8.762;2023-08-08T12:05:14;96049.00;;;20.30
10869;BMP180;62667;48.698;8.762;2023-08-08T12:07:43;96016.00;;;20.60
10869;BMP180;62667;48.698;8.762;2023-08-08T12:10:16;96027.00;;;20.90
10869;BMP180;62667;48.698;8.762;2023-08-08T12:12:46;96030.00;;;21.20
10869;BMP180;62667;48.698;8.762;2023-08-08T12:15:13;96013.00;;;20.60
10869;BMP180;62667;48.698;8.762;2023-08-08T12:17:43;96024.00;;;20.70
10869;BMP180;62667;48.698;8.762;2023-08-08T12:20:11;96030.00;;;20.80
10869;BMP180;62667;48.698;8.762;2023-08-08T12:22:38;96041.00;;;20.70
10869;BMP180;62667;48.698;8.762;2023-08-08T12:25:06;96047.00;;;19.90
10869;BMP180;62667;48.698;8.762;2023-08-08T12:27:35;96056.00;;;19.70
10869;BMP180;62667;48.698;8.762;2023-08-08T12:30:05;96061.00;;;19.50
10869;BMP180;62667;48.698;8.762;2023-08-08T12:32:33;96069.00;;;19.20
10869;BMP180;62667;48.698;8.762;2023-08-08T12:35:00;96056.00;;;18.80
10869;BMP180;62667;48.698;8.762;2023-08-08T12:37:28;96065.00;;;18.90
10869;BMP180;62667;48.698;8.762;2023-08-08T12:39:55;96055.00;;;18.80
10869;BMP180;62667;48.698;8.762;2023-08-08T12:42:23;96055.00;;;19.10
10869;BMP180;62667;48.698;8.762;2023-08-08T12:44:50;96054.00;;;19.00
10869;BMP180;62667;48.698;8.762;2023-08-08T12:47:20;96027.00;;;19.50
10869;BMP180;62667;48.698;8.762;2023-08-08T12:49:47;96035.00;;;20.30
10869;BMP180;62667;48.698;8.762;2023-08-08T12:52:15;96058.00;;;20.00
10869;BMP180;62667;48.698;8.762;2023-08-08T12:54:42;96040.00;;;19.80
10869;BMP180;62667;48.698;8.762;2023-08-08T12:57:10;96041.00;;;20.00
10869;BMP180;62667;48.698;8.762;2023-08-08T12:59:37;96050.00;;;19.70
10869;BMP180;62667;48.698;8.762;2023-08-08T13:02:04;96046.00;;;19.40
10869;BMP180;62667;48.698;8.762;2023-08-08T13:04:33;96046.00;;;19.40
10869;BMP180;62667;48.698;8.762;2023-08-08T13:07:01;96026.00;;;19.70
10869;BMP180;62667;48.698;8.762;2023-08-08T13:09:28;96022.00;;;19.90
10869;BMP180;62667;48.698;8.762;2023-08-08T13:11:56;96012.00;;;20.50
10869;BMP180;62667;48.698;8.762;2023-08-08T13:14:23;96022.00;;;20.90
10869;BMP180;62667;48.698;8.762;2023-08-08T13:16:51;96013.00;;;21.20
10869;BMP180;62667;48.698;8.762;2023-08-08T13:19:19;96034.00;;;21.00
10869;BMP180;62667;48.698;8.762;2023-08-08T13:21:49;96027.00;;;20.20
10869;BMP180;62667;48.698;8.762;2023-08-08T13:24:16;96025.00;;;19.70
10869;BMP180;62667;48.698;8.762;2023-08-08T13:26:43;96031.00;;;19.80
10869;BMP180;62667;48.698;8.762;2023-08-08T13:29:12;96039.00;;;20.00
10869;BMP180;62667;48.698;8.762;2023-08-08T13:31:39;96037.00;;;20.20
10869;BMP180;62667;48.698;8.762;2023-08-08T13:34:07;96045.00;;;19.70
10869;BMP180;62667;48.698;8.762;2023-08-08T13:36:35;96030.00;;;19.90
10869;BMP180;62667;48.698;8.762;2023-08-08T13:39:04;96021.00;;;19.70
10869;BMP180;62667;48.698;8.762;2023-08-08T13:41:31;96029.00;;;20.80
10869;BMP180;62667;48.698;8.762;2023-08-08T13:43:59;96026.00;;;20.60
10869;BMP180;62667;48.698;8.762;2023-08-08T13:46:26;96049.00;;;20.50
10869;BMP180;62667;48.698;8.762;2023-08-08T13:48:54;96016.00;;;20.60
10869;BMP180;62667;48.698;8.762;2023-08-08T13:51:21;96024.00;;;20.80
10869;BMP180;62667;48.698;8.762;2023-08-08T13:53:48;96027.00;;;20.40
10869;BMP180;62667;48.698;8.762;2023-08-08T13:56:17;96033.00;;;20.50
10869;BMP180;62667;48.698;8.762;2023-08-08T13:58:45;96034.00;;;20.20
10869;BMP180;62667;48.698;8.762;2023-08-08T14:01:12;96027.00;;;20.50
10869;BMP180;62667;48.698;8.762;2023-08-08T14:03:40;96031.00;;;20.40
10869;BMP180;62667;48.698;8.762;2023-08-08T14:06:07;96031.00;;;20.40
10869;BMP180;62667;48.698;8.762;2023-08-08T14:08:35;96035.00;;;20.30
10869;BMP180;62667;48.698;8.762;2023-08-08T14:11:02;96032.00;;;19.90
10869;BMP180;62667;48.698;8.762;2023-08-08T14:13:31;96055.00;;;19.80